sensor_id;sensor_type;location;lat;lon;timestamp;temperature;humidity
52656;SHT85;35474;51.032;6.998;2023-11-19T00:01:05;9.76;97.19
52656;SHT85;35474;51.032;6.998;2023-11-19T00:03:32;9.76;97.20
52656;SHT85;35474;51.032;6.998;2023-11-19T00:05:59;9.76;97.17
52656;SHT85;35474;51.032;6.998;2023-11-19T00:08:29;9.77;97.17
52656;SHT85;35474;51.032;6.998;2023-11-19T00:10:55;9.79;97.20
52656;SHT85;35474;51.032;6.998;2023-11-19T00:13:21;9.80;97.21
52656;SHT85;35474;51.032;6.998;2023-11-19T00:15:49;9.83;97.18
52656;SHT85;35474;51.032;6.998;2023-11-19T00:18:16;9.83;97.17
52656;SHT85;35474;51.032;6.998;2023-11-19T00:20:42;9.83;97.21
52656;SHT85;35474;51.032;6.998;2023-11-19T00:23:11;9.86;97.22
52656;SHT85;35474;51.032;6.998;2023-11-19T00:25:37;9.86;97.24
52656;SHT85;35474;51.032;6.998;2023-11-19T00:28:05;9.90;97.21
52656;SHT85;35474;51.032;6.998;2023-11-19T00:30:31;9.94;97.17
52656;SHT85;35474;51.032;6.998;2023-11-19T00:32:58;9.93;97.17
52656;SHT85;35474;51.032;6.998;2023-11-19T00:35:27;9.98;97.18
52656;SHT85;35474;51.032;6.998;2023-11-19T00:37:53;9.95;97.17
52656;SHT85;35474;51.032;6.998;2023-11-19T00:40:20;9.98;97.13
52656;SHT85;35474;51.032;6.998;2023-11-19T00:42:49;10.01;97.10
52656;SHT85;35474;51.032;6.998;2023-11-19T00:45:16;10.02;97.12
52656;SHT85;35474;51.032;6.998;2023-11-19T00:47:43;10.05;97.08
52656;SHT85;35474;51.032;6.998;2023-11-19T00:50:09;10.05;97.14
52656;SHT85;35474;51.032;6.998;2023-11-19T00:52:39;10.08;97.13
52656;SHT85;35474;51.032;6.998;2023-11-19T00:55:07;10.08;97.12
52656;SHT85;35474;51.032;6.998;2023-11-19T01:00:34;10.11;97.16
52656;SHT85;35474;51.032;6.998;2023-11-19T01:03:01;10.10;97.15
52656;SHT85;35474;51.032;6.998;2023-11-19T01:05:28;10.12;97.23
52656;SHT85;35474;51.032;6.998;2023-11-19T01:07:54;10.18;97.17
52656;SHT85;35474;51.032;6.998;2023-11-19T01:10:21;10.14;97.23
52656;SHT85;35474;51.032;6.998;2023-11-19T01:12:48;10.15;97.26
52656;SHT85;35474;51.032;6.998;2023-11-19T01:15:16;10.22;97.25
52656;SHT85;35474;51.032;6.998;2023-11-19T01:17:45;10.25;97.24
52656;SHT85;35474;51.032;6.998;2023-11-19T01:20:17;10.33;97.32
52656;SHT85;35474;51.032;6.998;2023-11-19T01:22:44;10.28;97.30
52656;SHT85;35474;51.032;6.998;2023-11-19T01:25:13;10.35;97.30
52656;SHT85;35474;51.032;6.998;2023-11-19T01:27:40;10.29;97.32
52656;SHT85;35474;51.032;6.998;2023-11-19T01:30:07;10.32;97.45
52656;SHT85;35474;51.032;6.998;2023-11-19T01:32:36;10.32;97.48
52656;SHT85;35474;51.032;6.998;2023-11-19T01:35:03;10.31;97.51
52656;SHT85;35474;51.032;6.998;2023-11-19T01:37:30;10.42;97.54
52656;SHT85;35474;51.032;6.998;2023-11-19T01:39:58;10.38;97.65
52656;SHT85;35474;51.032;6.998;2023-11-19T01:42:25;10.42;97.75
52656;SHT85;35474;51.032;6.998;2023-11-19T01:44:58;10.46;97.82
52656;SHT85;35474;51.032;6.998;2023-11-19T01:47:30;10.49;97.85
52656;SHT85;35474;51.032;6.998;2023-11-19T01:49:57;10.50;97.92
52656;SHT85;35474;51.032;6.998;2023-11-19T01:52:25;10.59;97.96
52656;SHT85;35474;51.032;6.998;2023-11-19T01:54:52;10.56;97.96
52656;SHT85;35474;51.032;6.998;2023-11-19T01:57:21;10.60;97.99
52656;SHT85;35474;51.032;6.998;2023-11-19T01:59:50;10.76;98.10
52656;SHT85;35474;51.032;6.998;2023-11-19T02:02:18;10.76;98.00
52656;SHT85;35474;51.032;6.998;2023-11-19T02:04:49;10.83;98.10
52656;SHT85;35474;51.032;6.998;2023-11-19T02:07:17;10.83;98.05
52656;SHT85;35474;51.032;6.998;2023-11-19T02:09:44;10.91;98.05
52656;SHT85;35474;51.032;6.998;2023-11-19T02:12:19;11.08;98.16
52656;SHT85;35474;51.032;6.998;2023-11-19T02:14:46;11.10;98.11
52656;SHT85;35474;51.032;6.998;2023-11-19T02:17:29;11.27;98.09
52656;SHT85;35474;51.032;6.998;2023-11-19T02:20:00;11.23;98.06
52656;SHT85;35474;51.032;6.998;2023-11-19T02:22:27;11.30;98.01
52656;SHT85;35474;51.032;6.998;2023-11-19T02:24:58;11.30;97.95
52656;SHT85;35474;51.032;6.998;2023-11-19T02:27:31;11.26;97.78
52656;SHT85;35474;51.032;6.998;2023-11-19T02:30:04;11.42;97.79
52656;SHT85;35474;51.032;6.998;2023-11-19T02:32:34;11.28;97.68
52656;SHT85;35474;51.032;6.998;2023-11-19T02:35:02;11.34;97.71
52656;SHT85;35474;51.032;6.998;2023-11-19T02:37:31;11.55;97.80
52656;SHT85;35474;51.032;6.998;2023-11-19T02:39:58;11.78;97.70
52656;SHT85;35474;51.032;6.998;2023-11-19T02:42:35;11.74;97.52
52656;SHT85;35474;51.032;6.998;2023-11-19T02:45:02;11.72;97.37
52656;SHT85;35474;51.032;6.998;2023-11-19T02:47:33;11.79;97.41
52656;SHT85;35474;51.032;6.998;2023-11-19T02:50:00;11.86;97.29
52656;SHT85;35474;51.032;6.998;2023-11-19T02:52:28;12.05;97.21
52656;SHT85;35474;51.032;6.998;2023-11-19T02:54:54;12.07;96.74
52656;SHT85;35474;51.032;6.998;2023-11-19T02:57:22;12.02;96.74
52656;SHT85;35474;51.032;6.998;2023-11-19T02:59:48;12.03;96.76
52656;SHT85;35474;51.032;6.998;2023-11-19T03:02:15;11.90;96.70
52656;SHT85;35474;51.032;6.998;2023-11-19T03:04:44;11.86;96.82
52656;SHT85;35474;51.032;6.998;2023-11-19T03:07:12;11.90;96.80
52656;SHT85;35474;51.032;6.998;2023-11-19T03:09:39;11.85;96.73
52656;SHT85;35474;51.032;6.998;2023-11-19T03:12:07;11.85;96.80
52656;SHT85;35474;51.032;6.998;2023-11-19T03:14:33;11.83;96.80
52656;SHT85;35474;51.032;6.998;2023-11-19T03:17:02;11.78;96.91
52656;SHT85;35474;51.032;6.998;2023-11-19T03:19:31;11.79;96.99
52656;SHT85;35474;51.032;6.998;2023-11-19T03:21:58;11.90;96.89
52656;SHT85;35474;51.032;6.998;2023-11-19T03:24:26;12.03;96.77
52656;SHT85;35474;51.032;6.998;2023-11-19T03:26:52;12.26;96.06
52656;SHT85;35474;51.032;6.998;2023-11-19T03:29:19;12.18;95.80
52656;SHT85;35474;51.032;6.998;2023-11-19T03:31:45;12.18;95.73
52656;SHT85;35474;51.032;6.998;2023-11-19T03:34:12;12.20;95.78
52656;SHT85;35474;51.032;6.998;2023-11-19T03:36:38;12.18;95.75
52656;SHT85;35474;51.032;6.998;2023-11-19T03:39:06;12.20;95.67
52656;SHT85;35474;51.032;6.998;2023-11-19T03:41:32;12.40;95.52
52656;SHT85;35474;51.032;6.998;2023-11-19T03:44:02;12.57;94.72
52656;SHT85;35474;51.032;6.998;2023-11-19T03:46:28;12.67;93.40
52656;SHT85;35474;51.032;6.998;2023-11-19T03:48:56;13.03;90.77
52656;SHT85;35474;51.032;6.998;2023-11-19T03:51:23;13.22;89.73
52656;SHT85;35474;51.032;6.998;2023-11-19T03:53:49;13.13;90.34
52656;SHT85;35474;51.032;6.998;2023-11-19T03:56:16;12.91;91.21
52656;SHT85;35474;51.032;6.998;2023-11-19T03:58:43;13.06;90.33
52656;SHT85;35474;51.032;6.998;2023-11-19T04:01:12;13.02;90.49
52656;SHT85;35474;51.032;6.998;2023-11-19T04:03:42;12.95;90.96
52656;SHT85;35474;51.032;6.998;2023-11-19T04:06:12;12.93;90.95
52656;SHT85;35474;51.032;6.998;2023-11-19T04:08:38;12.85;91.29
52656;SHT85;35474;51.032;6.998;2023-11-19T04:11:05;12.89;91.26
52656;SHT85;35474;51.032;6.998;2023-11-19T04:13:32;12.93;91.14
52656;SHT85;35474;51.032;6.998;2023-11-19T04:15:58;13.15;90.02
52656;SHT85;35474;51.032;6.998;2023-11-19T04:18:26;13.07;90.27
52656;SHT85;35474;51.032;6.998;2023-11-19T04:20:53;13.03;90.47
52656;SHT85;35474;51.032;6.998;2023-11-19T04:23:19;13.07;90.02
52656;SHT85;35474;51.032;6.998;2023-11-19T04:25:45;13.06;89.92
52656;SHT85;35474;51.032;6.998;2023-11-19T04:28:13;13.15;89.40
52656;SHT85;35474;51.032;6.998;2023-11-19T04:30:39;13.05;89.70
52656;SHT85;35474;51.032;6.998;2023-11-19T04:33:06;12.85;89.98
52656;SHT85;35474;51.032;6.998;2023-11-19T04:35:32;13.05;89.93
52656;SHT85;35474;51.032;6.998;2023-11-19T04:37:59;13.12;89.51
52656;SHT85;35474;51.032;6.998;2023-11-19T04:40:25;13.16;88.94
52656;SHT85;35474;51.032;6.998;2023-11-19T04:42:52;13.02;89.66
52656;SHT85;35474;51.032;6.998;2023-11-19T04:45:18;13.02;89.46
52656;SHT85;35474;51.032;6.998;2023-11-19T04:47:46;13.23;87.90
52656;SHT85;35474;51.032;6.998;2023-11-19T04:50:13;13.22;87.82
52656;SHT85;35474;51.032;6.998;2023-11-19T04:52:39;13.13;88.41
52656;SHT85;35474;51.032;6.998;2023-11-19T04:55:06;13.16;88.11
52656;SHT85;35474;51.032;6.998;2023-11-19T04:57:33;13.11;88.48
52656;SHT85;35474;51.032;6.998;2023-11-19T05:00:00;13.12;88.12
52656;SHT85;35474;51.032;6.998;2023-11-19T05:02:27;13.06;88.25
52656;SHT85;35474;51.032;6.998;2023-11-19T05:04:53;13.02;88.25
52656;SHT85;35474;51.032;6.998;2023-11-19T05:07:20;12.91;88.56
52656;SHT85;35474;51.032;6.998;2023-11-19T05:09:46;13.03;88.05
52656;SHT85;35474;51.032;6.998;2023-11-19T05:12:13;13.03;88.35
52656;SHT85;35474;51.032;6.998;2023-11-19T05:14:40;13.09;87.94
52656;SHT85;35474;51.032;6.998;2023-11-19T05:17:06;13.05;87.87
52656;SHT85;35474;51.032;6.998;2023-11-19T05:19:34;12.91;88.51
52656;SHT85;35474;51.032;6.998;2023-11-19T05:22:00;12.93;88.26
52656;SHT85;35474;51.032;6.998;2023-11-19T05:24:27;12.84;88.22
52656;SHT85;35474;51.032;6.998;2023-11-19T05:26:54;12.91;87.88
52656;SHT85;35474;51.032;6.998;2023-11-19T05:29:20;12.84;87.75
52656;SHT85;35474;51.032;6.998;2023-11-19T05:31:47;12.91;86.76
52656;SHT85;35474;51.032;6.998;2023-11-19T05:34:14;12.85;86.41
52656;SHT85;35474;51.032;6.998;2023-11-19T05:36:41;12.84;86.30
52656;SHT85;35474;51.032;6.998;2023-11-19T05:39:08;12.91;85.46
52656;SHT85;35474;51.032;6.998;2023-11-19T05:41:34;12.88;85.27
52656;SHT85;35474;51.032;6.998;2023-11-19T05:44:01;12.95;84.83
52656;SHT85;35474;51.032;6.998;2023-11-19T05:46:28;12.76;85.88
52656;SHT85;35474;51.032;6.998;2023-11-19T05:48:55;12.72;85.73
52656;SHT85;35474;51.032;6.998;2023-11-19T05:51:21;12.55;86.29
52656;SHT85;35474;51.032;6.998;2023-11-19T05:53:50;12.68;85.84
52656;SHT85;35474;51.032;6.998;2023-11-19T05:56:16;12.55;86.23
52656;SHT85;35474;51.032;6.998;2023-11-19T05:58:47;12.71;85.49
52656;SHT85;35474;51.032;6.998;2023-11-19T06:01:15;12.65;85.71
52656;SHT85;35474;51.032;6.998;2023-11-19T06:03:43;12.54;86.23
52656;SHT85;35474;51.032;6.998;2023-11-19T06:06:10;12.67;84.80
52656;SHT85;35474;51.032;6.998;2023-11-19T06:08:37;12.63;85.09
52656;SHT85;35474;51.032;6.998;2023-11-19T06:11:04;12.57;85.42
52656;SHT85;35474;51.032;6.998;2023-11-19T06:13:30;12.60;84.88
52656;SHT85;35474;51.032;6.998;2023-11-19T06:15:59;12.53;85.23
52656;SHT85;35474;51.032;6.998;2023-11-19T06:18:28;12.63;84.64
52656;SHT85;35474;51.032;6.998;2023-11-19T06:20:54;12.68;84.31
52656;SHT85;35474;51.032;6.998;2023-11-19T06:23:21;12.65;84.39
52656;SHT85;35474;51.032;6.998;2023-11-19T06:25:47;12.50;84.97
52656;SHT85;35474;51.032;6.998;2023-11-19T06:28:15;12.38;85.44
52656;SHT85;35474;51.032;6.998;2023-11-19T06:30:42;12.67;84.07
52656;SHT85;35474;51.032;6.998;2023-11-19T06:33:14;12.50;84.80
52656;SHT85;35474;51.032;6.998;2023-11-19T06:35:41;12.64;83.80
52656;SHT85;35474;51.032;6.998;2023-11-19T06:38:08;12.61;83.82
52656;SHT85;35474;51.032;6.998;2023-11-19T06:40:36;12.57;83.85
52656;SHT85;35474;51.032;6.998;2023-11-19T06:43:03;12.58;83.49
52656;SHT85;35474;51.032;6.998;2023-11-19T06:45:30;12.54;83.56
52656;SHT85;35474;51.032;6.998;2023-11-19T06:47:57;12.58;83.28
52656;SHT85;35474;51.032;6.998;2023-11-19T06:50:25;12.51;83.38
52656;SHT85;35474;51.032;6.998;2023-11-19T06:52:51;12.34;84.15
52656;SHT85;35474;51.032;6.998;2023-11-19T06:55:18;12.34;83.97
52656;SHT85;35474;51.032;6.998;2023-11-19T06:57:45;12.48;83.33
52656;SHT85;35474;51.032;6.998;2023-11-19T07:00:12;12.41;83.65
52656;SHT85;35474;51.032;6.998;2023-11-19T07:02:39;12.43;83.68
52656;SHT85;35474;51.032;6.998;2023-11-19T07:05:06;12.51;83.01
52656;SHT85;35474;51.032;6.998;2023-11-19T07:07:34;12.34;83.81
52656;SHT85;35474;51.032;6.998;2023-11-19T07:10:02;12.41;83.46
52656;SHT85;35474;51.032;6.998;2023-11-19T07:12:33;12.36;83.54
52656;SHT85;35474;51.032;6.998;2023-11-19T07:15:02;12.47;82.80
52656;SHT85;35474;51.032;6.998;2023-11-19T07:17:30;12.40;82.66
52656;SHT85;35474;51.032;6.998;2023-11-19T07:19:57;12.38;82.59
52656;SHT85;35474;51.032;6.998;2023-11-19T07:22:26;12.34;82.63
52656;SHT85;35474;51.032;6.998;2023-11-19T07:24:56;12.34;82.80
52656;SHT85;35474;51.032;6.998;2023-11-19T07:27:22;12.36;82.56
52656;SHT85;35474;51.032;6.998;2023-11-19T07:32:34;12.33;83.03
52656;SHT85;35474;51.032;6.998;2023-11-19T07:35:01;12.28;83.18
52656;SHT85;35474;51.032;6.998;2023-11-19T07:37:28;12.31;83.29
52656;SHT85;35474;51.032;6.998;2023-11-19T07:39:57;12.51;82.43
52656;SHT85;35474;51.032;6.998;2023-11-19T07:42:25;12.55;82.17
52656;SHT85;35474;51.032;6.998;2023-11-19T07:44:52;12.54;82.06
52656;SHT85;35474;51.032;6.998;2023-11-19T07:47:20;12.63;81.50
52656;SHT85;35474;51.032;6.998;2023-11-19T07:49:52;12.69;80.96
52656;SHT85;35474;51.032;6.998;2023-11-19T07:52:19;12.60;81.47
52656;SHT85;35474;51.032;6.998;2023-11-19T07:54:47;12.55;81.46
52656;SHT85;35474;51.032;6.998;2023-11-19T07:57:14;12.71;80.53
52656;SHT85;35474;51.032;6.998;2023-11-19T07:59:41;12.51;81.11
52656;SHT85;35474;51.032;6.998;2023-11-19T08:02:08;12.44;81.72
52656;SHT85;35474;51.032;6.998;2023-11-19T08:04:35;12.60;80.70
52656;SHT85;35474;51.032;6.998;2023-11-19T08:07:02;12.72;80.07
52656;SHT85;35474;51.032;6.998;2023-11-19T08:09:28;12.89;79.39
52656;SHT85;35474;51.032;6.998;2023-11-19T08:11:55;12.93;79.63
52656;SHT85;35474;51.032;6.998;2023-11-19T08:14:22;13.02;79.20
52656;SHT85;35474;51.032;6.998;2023-11-19T08:16:50;13.06;78.59
52656;SHT85;35474;51.032;6.998;2023-11-19T08:19:16;13.16;78.76
52656;SHT85;35474;51.032;6.998;2023-11-19T08:21:43;13.29;78.49
52656;SHT85;35474;51.032;6.998;2023-11-19T08:24:12;13.26;78.54
52656;SHT85;35474;51.032;6.998;2023-11-19T08:26:39;13.32;78.64
52656;SHT85;35474;51.032;6.998;2023-11-19T08:29:05;13.25;78.91
52656;SHT85;35474;51.032;6.998;2023-11-19T08:31:32;13.37;78.61
52656;SHT85;35474;51.032;6.998;2023-11-19T08:33:58;13.29;78.39
52656;SHT85;35474;51.032;6.998;2023-11-19T08:36:25;13.23;78.93
52656;SHT85;35474;51.032;6.998;2023-11-19T08:38:51;13.13;79.30
52656;SHT85;35474;51.032;6.998;2023-11-19T08:41:18;13.09;79.47
52656;SHT85;35474;51.032;6.998;2023-11-19T08:43:45;13.22;79.23
52656;SHT85;35474;51.032;6.998;2023-11-19T08:46:12;13.13;79.47
52656;SHT85;35474;51.032;6.998;2023-11-19T08:48:40;13.33;78.60
52656;SHT85;35474;51.032;6.998;2023-11-19T08:51:06;13.63;77.61
52656;SHT85;35474;51.032;6.998;2023-11-19T08:53:33;13.65;77.15
52656;SHT85;35474;51.032;6.998;2023-11-19T08:56:00;13.78;77.46
52656;SHT85;35474;51.032;6.998;2023-11-19T08:58:29;13.81;76.36
52656;SHT85;35474;51.032;6.998;2023-11-19T09:00:56;13.54;76.54
52656;SHT85;35474;51.032;6.998;2023-11-19T09:03:23;13.67;76.15
52656;SHT85;35474;51.032;6.998;2023-11-19T09:05:52;13.97;75.05
52656;SHT85;35474;51.032;6.998;2023-11-19T09:08:19;14.00;75.32
52656;SHT85;35474;51.032;6.998;2023-11-19T09:10:45;14.11;75.21
52656;SHT85;35474;51.032;6.998;2023-11-19T09:13:12;14.14;74.12
52656;SHT85;35474;51.032;6.998;2023-11-19T09:15:39;14.14;75.04
52656;SHT85;35474;51.032;6.998;2023-11-19T09:18:06;14.04;74.71
52656;SHT85;35474;51.032;6.998;2023-11-19T09:20:32;13.90;74.78
52656;SHT85;35474;51.032;6.998;2023-11-19T09:23:05;13.67;75.26
52656;SHT85;35474;51.032;6.998;2023-11-19T09:25:32;13.70;75.44
52656;SHT85;35474;51.032;6.998;2023-11-19T09:28:02;13.67;75.07
52656;SHT85;35474;51.032;6.998;2023-11-19T09:30:31;13.63;75.28
52656;SHT85;35474;51.032;6.998;2023-11-19T09:33:00;13.51;75.88
52656;SHT85;35474;51.032;6.998;2023-11-19T09:35:28;13.63;75.83
52656;SHT85;35474;51.032;6.998;2023-11-19T09:37:54;13.84;74.97
52656;SHT85;35474;51.032;6.998;2023-11-19T09:40:21;13.87;74.77
52656;SHT85;35474;51.032;6.998;2023-11-19T09:42:47;14.12;73.87
52656;SHT85;35474;51.032;6.998;2023-11-19T09:45:15;14.08;73.88
52656;SHT85;35474;51.032;6.998;2023-11-19T09:47:43;13.93;74.36
52656;SHT85;35474;51.032;6.998;2023-11-19T09:50:18;13.78;75.21
52656;SHT85;35474;51.032;6.998;2023-11-19T09:52:46;13.68;75.15
52656;SHT85;35474;51.032;6.998;2023-11-19T09:55:13;13.64;75.42
52656;SHT85;35474;51.032;6.998;2023-11-19T09:57:40;13.60;74.98
52656;SHT85;35474;51.032;6.998;2023-11-19T10:00:08;13.63;75.43
52656;SHT85;35474;51.032;6.998;2023-11-19T10:02:37;13.60;75.71
52656;SHT85;35474;51.032;6.998;2023-11-19T10:05:08;13.57;75.06
52656;SHT85;35474;51.032;6.998;2023-11-19T10:07:40;13.74;74.96
52656;SHT85;35474;51.032;6.998;2023-11-19T10:10:07;13.75;74.41
52656;SHT85;35474;51.032;6.998;2023-11-19T10:12:34;13.94;73.65
52656;SHT85;35474;51.032;6.998;2023-11-19T10:15:01;14.02;73.61
52656;SHT85;35474;51.032;6.998;2023-11-19T10:17:28;14.14;73.30
52656;SHT85;35474;51.032;6.998;2023-11-19T10:19:58;14.00;73.58
52656;SHT85;35474;51.032;6.998;2023-11-19T10:22:25;14.43;72.65
52656;SHT85;35474;51.032;6.998;2023-11-19T10:24:53;14.62;71.54
52656;SHT85;35474;51.032;6.998;2023-11-19T10:27:23;14.37;72.20
52656;SHT85;35474;51.032;6.998;2023-11-19T10:29:51;14.22;73.12
52656;SHT85;35474;51.032;6.998;2023-11-19T10:32:18;14.25;73.09
52656;SHT85;35474;51.032;6.998;2023-11-19T10:34:53;14.09;73.71
52656;SHT85;35474;51.032;6.998;2023-11-19T10:37:31;14.00;73.97
52656;SHT85;35474;51.032;6.998;2023-11-19T10:39:59;14.02;73.90
52656;SHT85;35474;51.032;6.998;2023-11-19T10:42:26;13.85;73.75
52656;SHT85;35474;51.032;6.998;2023-11-19T10:44:53;13.78;73.89
52656;SHT85;35474;51.032;6.998;2023-11-19T10:47:22;13.84;73.40
52656;SHT85;35474;51.032;6.998;2023-11-19T10:49:52;13.93;73.72
52656;SHT85;35474;51.032;6.998;2023-11-19T10:52:25;14.16;72.68
52656;SHT85;35474;51.032;6.998;2023-11-19T10:54:54;14.15;73.19
52656;SHT85;35474;51.032;6.998;2023-11-19T10:57:24;14.19;72.61
52656;SHT85;35474;51.032;6.998;2023-11-19T11:00:00;14.08;72.49
52656;SHT85;35474;51.032;6.998;2023-11-19T11:02:36;14.14;72.57
52656;SHT85;35474;51.032;6.998;2023-11-19T11:05:08;14.06;72.43
52656;SHT85;35474;51.032;6.998;2023-11-19T11:07:38;14.06;72.40
52656;SHT85;35474;51.032;6.998;2023-11-19T11:10:07;14.01;71.89
52656;SHT85;35474;51.032;6.998;2023-11-19T11:12:36;14.00;71.95
52656;SHT85;35474;51.032;6.998;2023-11-19T11:15:08;14.00;71.59
52656;SHT85;35474;51.032;6.998;2023-11-19T11:17:39;13.88;72.16
52656;SHT85;35474;51.032;6.998;2023-11-19T11:20:08;13.85;72.75
52656;SHT85;35474;51.032;6.998;2023-11-19T11:22:40;13.74;73.22
52656;SHT85;35474;51.032;6.998;2023-11-19T11:25:29;13.54;74.96
52656;SHT85;35474;51.032;6.998;2023-11-19T11:31:03;13.77;74.56
52656;SHT85;35474;51.032;6.998;2023-11-19T11:36:24;14.00;72.90
52656;SHT85;35474;51.032;6.998;2023-11-19T11:38:52;14.02;72.76
52656;SHT85;35474;51.032;6.998;2023-11-19T11:41:24;13.91;73.40
52656;SHT85;35474;51.032;6.998;2023-11-19T11:43:55;13.98;73.17
52656;SHT85;35474;51.032;6.998;2023-11-19T11:49:07;14.51;71.18
52656;SHT85;35474;51.032;6.998;2023-11-19T11:54:10;14.77;68.85
52656;SHT85;35474;51.032;6.998;2023-11-19T11:56:39;14.73;69.33
52656;SHT85;35474;51.032;6.998;2023-11-19T11:59:18;14.70;68.80
52656;SHT85;35474;51.032;6.998;2023-11-19T12:02:00;14.53;68.84
52656;SHT85;35474;51.032;6.998;2023-11-19T12:04:27;14.98;67.91
52656;SHT85;35474;51.032;6.998;2023-11-19T12:07:14;14.74;67.88
52656;SHT85;35474;51.032;6.998;2023-11-19T12:09:47;14.53;68.06
52656;SHT85;35474;51.032;6.998;2023-11-19T12:12:34;14.69;68.38
52656;SHT85;35474;51.032;6.998;2023-11-19T12:15:02;14.48;68.94
52656;SHT85;35474;51.032;6.998;2023-11-19T12:20:00;14.39;70.03
52656;SHT85;35474;51.032;6.998;2023-11-19T12:22:27;14.37;70.06
52656;SHT85;35474;51.032;6.998;2023-11-19T12:24:54;14.44;70.49
52656;SHT85;35474;51.032;6.998;2023-11-19T12:27:21;14.36;70.93
52656;SHT85;35474;51.032;6.998;2023-11-19T12:29:50;14.19;71.52
52656;SHT85;35474;51.032;6.998;2023-11-19T12:32:17;14.08;71.59
52656;SHT85;35474;51.032;6.998;2023-11-19T12:34:44;14.05;71.34
52656;SHT85;35474;51.032;6.998;2023-11-19T12:37:12;14.04;72.06
52656;SHT85;35474;51.032;6.998;2023-11-19T12:39:39;14.09;71.95
52656;SHT85;35474;51.032;6.998;2023-11-19T12:42:06;14.12;72.04
52656;SHT85;35474;51.032;6.998;2023-11-19T12:44:33;14.08;71.56
52656;SHT85;35474;51.032;6.998;2023-11-19T12:47:01;14.04;72.05
52656;SHT85;35474;51.032;6.998;2023-11-19T12:49:33;14.06;72.25
52656;SHT85;35474;51.032;6.998;2023-11-19T12:51:59;14.06;72.44
52656;SHT85;35474;51.032;6.998;2023-11-19T12:54:36;14.04;72.53
52656;SHT85;35474;51.032;6.998;2023-11-19T12:57:03;14.05;72.83
52656;SHT85;35474;51.032;6.998;2023-11-19T12:59:34;14.02;71.88
52656;SHT85;35474;51.032;6.998;2023-11-19T13:02:01;14.00;72.20
52656;SHT85;35474;51.032;6.998;2023-11-19T13:04:31;14.01;72.46
52656;SHT85;35474;51.032;6.998;2023-11-19T13:07:00;14.04;72.77
52656;SHT85;35474;51.032;6.998;2023-11-19T13:09:31;14.08;72.50
52656;SHT85;35474;51.032;6.998;2023-11-19T13:11:58;14.06;72.97
52656;SHT85;35474;51.032;6.998;2023-11-19T13:14:36;14.11;72.69
52656;SHT85;35474;51.032;6.998;2023-11-19T13:17:04;14.04;72.74
52656;SHT85;35474;51.032;6.998;2023-11-19T13:19:32;14.01;73.26
52656;SHT85;35474;51.032;6.998;2023-11-19T13:21:58;13.95;73.56
52656;SHT85;35474;51.032;6.998;2023-11-19T13:24:25;14.09;73.54
52656;SHT85;35474;51.032;6.998;2023-11-19T13:26:51;14.04;73.33
52656;SHT85;35474;51.032;6.998;2023-11-19T13:29:18;14.06;73.51
52656;SHT85;35474;51.032;6.998;2023-11-19T13:31:44;13.97;73.27
52656;SHT85;35474;51.032;6.998;2023-11-19T13:34:11;13.93;73.45
52656;SHT85;35474;51.032;6.998;2023-11-19T13:36:37;13.93;73.79
52656;SHT85;35474;51.032;6.998;2023-11-19T13:39:04;13.88;73.95
52656;SHT85;35474;51.032;6.998;2023-11-19T13:41:32;13.93;73.53
52656;SHT85;35474;51.032;6.998;2023-11-19T13:43:58;14.09;73.09
52656;SHT85;35474;51.032;6.998;2023-11-19T13:46:25;14.09;72.94
52656;SHT85;35474;51.032;6.998;2023-11-19T13:48:52;14.08;73.16
52656;SHT85;35474;51.032;6.998;2023-11-19T13:51:19;14.04;72.81
52656;SHT85;35474;51.032;6.998;2023-11-19T13:53:45;13.98;72.92
52656;SHT85;35474;51.032;6.998;2023-11-19T13:56:15;13.97;73.13
52656;SHT85;35474;51.032;6.998;2023-11-19T13:58:43;13.97;72.76
52656;SHT85;35474;51.032;6.998;2023-11-19T14:01:09;13.94;72.74
52656;SHT85;35474;51.032;6.998;2023-11-19T14:03:36;13.91;72.62
52656;SHT85;35474;51.032;6.998;2023-11-19T14:06:03;13.94;72.52
52656;SHT85;35474;51.032;6.998;2023-11-19T14:08:29;13.90;72.92
52656;SHT85;35474;51.032;6.998;2023-11-19T14:10:56;13.91;72.33
52656;SHT85;35474;51.032;6.998;2023-11-19T14:13:24;13.88;72.66
52656;SHT85;35474;51.032;6.998;2023-11-19T14:15:50;13.91;71.97
52656;SHT85;35474;51.032;6.998;2023-11-19T14:18:17;13.91;71.82
52656;SHT85;35474;51.032;6.998;2023-11-19T14:20:45;13.61;73.46
52656;SHT85;35474;51.032;6.998;2023-11-19T14:23:11;13.50;73.62
52656;SHT85;35474;51.032;6.998;2023-11-19T14:25:38;13.61;73.21
52656;SHT85;35474;51.032;6.998;2023-11-19T14:28:05;13.48;73.01
52656;SHT85;35474;51.032;6.998;2023-11-19T14:30:32;13.60;72.93
52656;SHT85;35474;51.032;6.998;2023-11-19T14:33:01;13.67;72.59
52656;SHT85;35474;51.032;6.998;2023-11-19T14:35:30;13.71;72.38
52656;SHT85;35474;51.032;6.998;2023-11-19T14:37:58;13.71;72.45
52656;SHT85;35474;51.032;6.998;2023-11-19T14:40:27;13.74;72.43
52656;SHT85;35474;51.032;6.998;2023-11-19T14:42:56;13.90;71.19
52656;SHT85;35474;51.032;6.998;2023-11-19T14:45:23;13.77;71.70
52656;SHT85;35474;51.032;6.998;2023-11-19T14:47:49;13.87;71.34
52656;SHT85;35474;51.032;6.998;2023-11-19T14:50:16;13.83;71.40
52656;SHT85;35474;51.032;6.998;2023-11-19T14:52:43;13.91;71.17
52656;SHT85;35474;51.032;6.998;2023-11-19T14:55:09;13.94;70.51
52656;SHT85;35474;51.032;6.998;2023-11-19T14:57:37;14.01;70.59
52656;SHT85;35474;51.032;6.998;2023-11-19T15:00:12;13.97;70.56
52656;SHT85;35474;51.032;6.998;2023-11-19T15:02:40;13.87;70.97
52656;SHT85;35474;51.032;6.998;2023-11-19T15:05:08;13.87;71.31
52656;SHT85;35474;51.032;6.998;2023-11-19T15:07:37;13.78;71.24
52656;SHT85;35474;51.032;6.998;2023-11-19T15:10:04;13.77;71.59
52656;SHT85;35474;51.032;6.998;2023-11-19T15:12:36;13.71;71.84
52656;SHT85;35474;51.032;6.998;2023-11-19T15:15:07;13.65;71.75
52656;SHT85;35474;51.032;6.998;2023-11-19T15:17:48;13.64;71.89
52656;SHT85;35474;51.032;6.998;2023-11-19T15:23:35;13.13;75.50
52656;SHT85;35474;51.032;6.998;2023-11-19T15:26:25;13.20;74.75
52656;SHT85;35474;51.032;6.998;2023-11-19T15:28:53;13.29;74.27
52656;SHT85;35474;51.032;6.998;2023-11-19T15:31:24;13.25;74.77
52656;SHT85;35474;51.032;6.998;2023-11-19T15:33:55;13.09;75.56
52656;SHT85;35474;51.032;6.998;2023-11-19T15:36:22;12.96;76.29
52656;SHT85;35474;51.032;6.998;2023-11-19T15:38:50;12.84;77.79
52656;SHT85;35474;51.032;6.998;2023-11-19T15:41:21;12.43;81.00
52656;SHT85;35474;51.032;6.998;2023-11-19T15:47:33;12.18;82.38
52656;SHT85;35474;51.032;6.998;2023-11-19T15:50:02;12.05;83.47
52656;SHT85;35474;51.032;6.998;2023-11-19T15:52:32;12.07;82.73
52656;SHT85;35474;51.032;6.998;2023-11-19T15:54:59;12.23;81.77
52656;SHT85;35474;51.032;6.998;2023-11-19T15:57:25;12.46;80.72
52656;SHT85;35474;51.032;6.998;2023-11-19T15:59:52;12.53;80.19
52656;SHT85;35474;51.032;6.998;2023-11-19T16:02:20;12.55;80.03
52656;SHT85;35474;51.032;6.998;2023-11-19T16:04:47;12.60;79.67